sensor_id;sensor_type;location;lat;lon;timestamp;pressure;altitude;pressure_sealevel;temperature;humidity
39223;BME280;24936;46.328;11.026;2023-07-22T00:00:16;94205.63;;;11.47;100.00
39223;BME280;24936;46.328;11.026;2023-07-22T00:02:42;94217.44;;;11.61;100.00
39223;BME280;24936;46.328;11.026;2023-07-22T00:05:08;94212.19;;;11.61;100.00
39223;BME280;24936;46.328;11.026;2023-07-22T00:07:33;94223.91;;;11.67;100.00
39223;BME280;24936;46.328;11.026;2023-07-22T00:09:59;94212.19;;;11.61;100.00
39223;BME280;24936;46.328;11.026;2023-07-22T00:12:25;94219.41;;;11.59;100.00
39223;BME280;24936;46.328;11.026;2023-07-22T00:14:51;94216.91;;;11.58;100.00
39223;BME280;24936;46.328;11.026;2023-07-22T00:17:18;94216.38;;;11.54;100.00
39223;BME280;24936;46.328;11.026;2023-07-22T00:19:43;94210.19;;;11.63;100.00
39223;BME280;24936;46.328;11.026;2023-07-22T00:22:09;94212.22;;;11.70;100.00
39223;BME280;24936;46.328;11.026;2023-07-22T00:24:35;94206.41;;;11.84;100.00
39223;BME280;24936;46.328;11.026;2023-07-22T00:27:00;94208.44;;;11.90;100.00
39223;BME280;24936;46.328;11.026;2023-07-22T00:29:26;94216.88;;;11.94;100.00
39223;BME280;24936;46.328;11.026;2023-07-22T00:31:51;94205.22;;;11.78;100.00
39223;BME280;24936;46.328;11.026;2023-07-22T00:34:16;94209.03;;;11.84;100.00
39223;BME280;24936;46.328;11.026;2023-07-22T00:36:42;94211.06;;;11.90;100.00
39223;BME280;24936;46.328;11.026;2023-07-22T00:39:09;94217.47;;;11.88;100.00
39223;BME280;24936;46.328;11.026;2023-07-22T00:41:34;94213.34;;;11.85;100.00
39223;BME280;24936;46.328;11.026;2023-07-22T00:44:00;94222.19;;;11.76;100.00
39223;BME280;24936;46.328;11.026;2023-07-22T00:46:25;94216.53;;;11.71;100.00
39223;BME280;24936;46.328;11.026;2023-07-22T00:48:50;94211.41;;;11.69;100.00
39223;BME280;24936;46.328;11.026;2023-07-22T00:51:17;94216.59;;;11.61;100.00
39223;BME280;24936;46.328;11.026;2023-07-22T00:53:43;94214.34;;;11.66;100.00
39223;BME280;24936;46.328;11.026;2023-07-22T00:56:08;94211.34;;;11.61;100.00
39223;BME280;24936;46.328;11.026;2023-07-22T00:58:34;94214.44;;;11.56;100.00
39223;BME280;24936;46.328;11.026;2023-07-22T01:00:59;94203.06;;;11.38;100.00
39223;BME280;24936;46.328;11.026;2023-07-22T01:03:25;94204.59;;;11.40;100.00
39223;BME280;24936;46.328;11.026;2023-07-22T01:05:52;94205.41;;;11.41;100.00
39223;BME280;24936;46.328;11.026;2023-07-22T01:08:18;94202.09;;;11.39;100.00
39223;BME280;24936;46.328;11.026;2023-07-22T01:10:44;94199.38;;;11.30;100.00
39223;BME280;24936;46.328;11.026;2023-07-22T01:13:09;94196.59;;;11.32;100.00
39223;BME280;24936;46.328;11.026;2023-07-22T01:15:35;94190.63;;;11.30;100.00
39223;BME280;24936;46.328;11.026;2023-07-22T01:18:03;94192.59;;;11.10;100.00
39223;BME280;24936;46.328;11.026;2023-07-22T01:20:29;94195.44;;;11.16;100.00
39223;BME280;24936;46.328;11.026;2023-07-22T01:22:55;94190.34;;;11.15;100.00
39223;BME280;24936;46.328;11.026;2023-07-22T01:25:21;94183.66;;;11.21;100.00
39223;BME280;24936;46.328;11.026;2023-07-22T01:27:48;94190.41;;;11.23;100.00
39223;BME280;24936;46.328;11.026;2023-07-22T01:30:13;94192.41;;;11.21;100.00
39223;BME280;24936;46.328;11.026;2023-07-22T01:32:39;94195.03;;;11.21;100.00
39223;BME280;24936;46.328;11.026;2023-07-22T01:35:05;94193.22;;;11.22;100.00
39223;BME280;24936;46.328;11.026;2023-07-22T01:37:33;94189.72;;;11.03;100.00
39223;BME280;24936;46.328;11.026;2023-07-22T01:39:58;94190.28;;;11.07;100.00
39223;BME280;24936;46.328;11.026;2023-07-22T01:42:23;94187.50;;;11.08;100.00
39223;BME280;24936;46.328;11.026;2023-07-22T01:44:49;94185.00;;;11.25;100.00
39223;BME280;24936;46.328;11.026;2023-07-22T01:47:14;94189.59;;;11.23;100.00
39223;BME280;24936;46.328;11.026;2023-07-22T01:49:40;94189.06;;;11.19;100.00
39223;BME280;24936;46.328;11.026;2023-07-22T01:52:07;94195.31;;;11.18;100.00
39223;BME280;24936;46.328;11.026;2023-07-22T01:54:32;94197.19;;;11.08;100.00
39223;BME280;24936;46.328;11.026;2023-07-22T01:56:58;94203.28;;;10.90;100.00
39223;BME280;24936;46.328;11.026;2023-07-22T01:59:23;94194.22;;;10.75;100.00
39223;BME280;24936;46.328;11.026;2023-07-22T02:01:49;94187.94;;;10.85;100.00
39223;BME280;24936;46.328;11.026;2023-07-22T02:04:14;94196.47;;;10.88;100.00
39223;BME280;24936;46.328;11.026;2023-07-22T02:06:40;94199.94;;;10.88;100.00
39223;BME280;24936;46.328;11.026;2023-07-22T02:09:05;94197.03;;;10.91;100.00
39223;BME280;24936;46.328;11.026;2023-07-22T02:11:36;94193.09;;;10.77;100.00
39223;BME280;24936;46.328;11.026;2023-07-22T02:14:02;94194.06;;;10.76;100.00
39223;BME280;24936;46.328;11.026;2023-07-22T02:16:28;94194.59;;;10.80;100.00
39223;BME280;24936;46.328;11.026;2023-07-22T02:18:54;94202.78;;;10.77;100.00
39223;BME280;24936;46.328;11.026;2023-07-22T02:21:19;94200.06;;;10.68;100.00
39223;BME280;24936;46.328;11.026;2023-07-22T02:23:44;94205.91;;;10.62;100.00
39223;BME280;24936;46.328;11.026;2023-07-22T02:26:10;94204.47;;;10.78;100.00
39223;BME280;24936;46.328;11.026;2023-07-22T02:28:35;94206.69;;;10.73;100.00
39223;BME280;24936;46.328;11.026;2023-07-22T02:31:02;94202.25;;;10.73;100.00
39223;BME280;24936;46.328;11.026;2023-07-22T02:33:32;94203.91;;;10.74;100.00
39223;BME280;24936;46.328;11.026;2023-07-22T02:35:57;94204.47;;;10.78;100.00
39223;BME280;24936;46.328;11.026;2023-07-22T02:38:23;94201.50;;;10.81;100.00
39223;BME280;24936;46.328;11.026;2023-07-22T02:40:48;94203.38;;;10.70;100.00
39223;BME280;24936;46.328;11.026;2023-07-22T02:43:14;94200.91;;;10.69;100.00
39223;BME280;24936;46.328;11.026;2023-07-22T02:45:40;94208.91;;;10.67;100.00
39223;BME280;24936;46.328;11.026;2023-07-22T02:48:06;94209.47;;;10.71;100.00
39223;BME280;24936;46.328;11.026;2023-07-22T02:50:31;94213.91;;;10.70;100.00
39223;BME280;24936;46.328;11.026;2023-07-22T02:52:57;94207.47;;;10.83;100.00
39223;BME280;24936;46.328;11.026;2023-07-22T02:55:22;94210.47;;;10.88;100.00
39223;BME280;24936;46.328;11.026;2023-07-22T02:57:48;94208.53;;;10.90;100.00
39223;BME280;24936;46.328;11.026;2023-07-22T03:00:16;94211.28;;;10.89;100.00
39223;BME280;24936;46.328;11.026;2023-07-22T03:02:52;94222.00;;;10.87;100.00
39223;BME280;24936;46.328;11.026;2023-07-22T03:05:18;94219.94;;;10.81;100.00
39223;BME280;24936;46.328;11.026;2023-07-22T03:07:44;94231.31;;;10.81;100.00
39223;BME280;24936;46.328;11.026;2023-07-22T03:10:10;94235.25;;;10.67;100.00
39223;BME280;24936;46.328;11.026;2023-07-22T03:12:36;94237.13;;;10.75;100.00
39223;BME280;24936;46.328;11.026;2023-07-22T03:15:02;94236.91;;;10.68;100.00
39223;BME280;24936;46.328;11.026;2023-07-22T03:17:29;94236.53;;;10.63;100.00
39223;BME280;24936;46.328;11.026;2023-07-22T03:19:55;94239.47;;;10.50;100.00
39223;BME280;24936;46.328;11.026;2023-07-22T03:22:20;94247.50;;;10.59;100.00
39223;BME280;24936;46.328;11.026;2023-07-22T03:24:46;94247.75;;;10.65;100.00
39223;BME280;24936;46.328;11.026;2023-07-22T03:27:12;94248.00;;;10.72;100.00
39223;BME280;24936;46.328;11.026;2023-07-22T03:29:38;94249.72;;;10.81;100.00
39223;BME280;24936;46.328;11.026;2023-07-22T03:32:05;94255.44;;;10.77;100.00
39223;BME280;24936;46.328;11.026;2023-07-22T03:34:30;94254.06;;;10.73;100.00
39223;BME280;24936;46.328;11.026;2023-07-22T03:36:56;94253.66;;;10.67;100.00
39223;BME280;24936;46.328;11.026;2023-07-22T03:39:22;94247.53;;;10.77;100.00
39223;BME280;24936;46.328;11.026;2023-07-22T03:41:48;94238.34;;;10.81;100.00
39223;BME280;24936;46.328;11.026;2023-07-22T03:44:13;94246.84;;;10.75;100.00
39223;BME280;24936;46.328;11.026;2023-07-22T03:46:39;94247.75;;;10.65;100.00
39223;BME280;24936;46.328;11.026;2023-07-22T03:49:05;94260.50;;;10.60;100.00
39223;BME280;24936;46.328;11.026;2023-07-22T03:51:30;94264.19;;;10.67;100.00
39223;BME280;24936;46.328;11.026;2023-07-22T03:53:56;94259.53;;;10.61;100.00
39223;BME280;24936;46.328;11.026;2023-07-22T03:56:21;94257.47;;;10.55;100.00
39223;BME280;24936;46.328;11.026;2023-07-22T03:58:49;94269.34;;;10.59;100.00
39223;BME280;24936;46.328;11.026;2023-07-22T04:01:14;94266.06;;;10.47;100.00
39223;BME280;24936;46.328;11.026;2023-07-22T04:03:40;94271.00;;;10.70;100.00
39223;BME280;24936;46.328;11.026;2023-07-22T04:06:05;94274.88;;;10.66;100.00
39223;BME280;24936;46.328;11.026;2023-07-22T04:08:31;94268.66;;;10.57;100.00
39223;BME280;24936;46.328;11.026;2023-07-22T04:10:57;94277.00;;;10.52;100.00
39223;BME280;24936;46.328;11.026;2023-07-22T04:13:24;94281.13;;;10.55;100.00
39223;BME280;24936;46.328;11.026;2023-07-22T04:15:50;94275.59;;;10.58;100.00
39223;BME280;24936;46.328;11.026;2023-07-22T04:18:16;94278.50;;;10.55;100.00
39223;BME280;24936;46.328;11.026;2023-07-22T04:20:42;94273.25;;;10.55;100.00
39223;BME280;24936;46.328;11.026;2023-07-22T04:23:08;94274.53;;;10.51;100.00
39223;BME280;24936;46.328;11.026;2023-07-22T04:25:39;94276.78;;;10.74;100.00
39223;BME280;24936;46.328;11.026;2023-07-22T04:28:04;94272.66;;;10.71;100.00
39223;BME280;24936;46.328;11.026;2023-07-22T04:30:31;94273.97;;;10.85;100.00
39223;BME280;24936;46.328;11.026;2023-07-22T04:32:56;94280.19;;;10.84;100.00
39223;BME280;24936;46.328;11.026;2023-07-22T04:35:21;94287.06;;;10.95;100.00
39223;BME280;24936;46.328;11.026;2023-07-22T04:37:47;94284.97;;;10.98;100.00
39223;BME280;24936;46.328;11.026;2023-07-22T04:40:13;94295.19;;;11.11;100.00
39223;BME280;24936;46.328;11.026;2023-07-22T04:42:43;94294.56;;;11.17;100.00
39223;BME280;24936;46.328;11.026;2023-07-22T04:45:09;94286.44;;;11.29;100.00
39223;BME280;24936;46.328;11.026;2023-07-22T04:47:35;94296.56;;;11.34;100.00
39223;BME280;24936;46.328;11.026;2023-07-22T04:50:01;94291.09;;;11.45;100.00
39223;BME280;24936;46.328;11.026;2023-07-22T04:52:26;94297.31;;;11.44;100.00
39223;BME280;24936;46.328;11.026;2023-07-22T04:54:51;94296.53;;;11.61;100.00
39223;BME280;24936;46.328;11.026;2023-07-22T04:57:18;94292.22;;;11.60;100.00
39223;BME280;24936;46.328;11.026;2023-07-22T04:59:44;94293.03;;;11.61;100.00
39223;BME280;24936;46.328;11.026;2023-07-22T05:02:09;94296.81;;;11.58;100.00
39223;BME280;24936;46.328;11.026;2023-07-22T05:04:35;94297.72;;;11.67;100.00
39223;BME280;24936;46.328;11.026;2023-07-22T05:07:00;94296.88;;;11.67;100.00
39223;BME280;24936;46.328;11.026;2023-07-22T05:09:25;94300.81;;;11.62;100.00
39223;BME280;24936;46.328;11.026;2023-07-22T05:11:51;94300.88;;;11.71;100.00
39223;BME280;24936;46.328;11.026;2023-07-22T05:14:16;94299.97;;;11.80;100.00
39223;BME280;24936;46.328;11.026;2023-07-22T05:16:42;94304.66;;;11.86;100.00
39223;BME280;24936;46.328;11.026;2023-07-22T05:19:07;94316.09;;;12.13;100.00
39223;BME280;24936;46.328;11.026;2023-07-22T05:21:33;94311.00;;;12.38;100.00
39223;BME280;24936;46.328;11.026;2023-07-22T05:23:59;94313.06;;;12.52;100.00
39223;BME280;24936;46.328;11.026;2023-07-22T05:26:24;94315.41;;;12.56;100.00
39223;BME280;24936;46.328;11.026;2023-07-22T05:28:50;94320.69;;;12.56;100.00
39223;BME280;24936;46.328;11.026;2023-07-22T05:31:16;94312.81;;;12.64;100.00
39223;BME280;24936;46.328;11.026;2023-07-22T05:33:41;94317.31;;;12.72;100.00
39223;BME280;24936;46.328;11.026;2023-07-22T05:36:07;94319.47;;;12.76;100.00
39223;BME280;24936;46.328;11.026;2023-07-22T05:38:32;94322.84;;;12.87;100.00
39223;BME280;24936;46.328;11.026;2023-07-22T05:40:58;94320.91;;;12.97;100.00
39223;BME280;24936;46.328;11.026;2023-07-22T05:43:23;94328.84;;;12.97;100.00
39223;BME280;24936;46.328;11.026;2023-07-22T05:45:49;94321.72;;;12.97;100.00
39223;BME280;24936;46.328;11.026;2023-07-22T05:48:15;94326.47;;;12.59;100.00
39223;BME280;24936;46.328;11.026;2023-07-22T05:50:41;94330.31;;;12.65;100.00
39223;BME280;24936;46.328;11.026;2023-07-22T05:53:06;94336.19;;;12.85;100.00
39223;BME280;24936;46.328;11.026;2023-07-22T05:55:32;94340.41;;;13.04;100.00
39223;BME280;24936;46.328;11.026;2023-07-22T05:58:02;94337.84;;;13.21;100.00
39223;BME280;24936;46.328;11.026;2023-07-22T06:00:32;94336.88;;;13.22;100.00
39223;BME280;24936;46.328;11.026;2023-07-22T06:02:58;94332.94;;;13.26;100.00
39223;BME280;24936;46.328;11.026;2023-07-22T06:05:23;94335.41;;;13.27;100.00
39223;BME280;24936;46.328;11.026;2023-07-22T06:07:50;94339.28;;;13.41;100.00
39223;BME280;24936;46.328;11.026;2023-07-22T06:10:15;94335.84;;;13.49;100.00
39223;BME280;24936;46.328;11.026;2023-07-22T06:12:41;94341.78;;;13.51;100.00
39223;BME280;24936;46.328;11.026;2023-07-22T06:15:07;94336.72;;;13.74;100.00
39223;BME280;24936;46.328;11.026;2023-07-22T06:17:33;94339.38;;;13.83;100.00
39223;BME280;24936;46.328;11.026;2023-07-22T06:19:58;94342.03;;;13.91;100.00
39223;BME280;24936;46.328;11.026;2023-07-22T06:22:24;94344.31;;;13.69;100.00
39223;BME280;24936;46.328;11.026;2023-07-22T06:24:49;94341.84;;;13.76;100.00
39223;BME280;24936;46.328;11.026;2023-07-22T06:27:15;94337.91;;;13.88;100.00
39223;BME280;24936;46.328;11.026;2023-07-22T06:29:40;94350.31;;;14.04;100.00
39223;BME280;24936;46.328;11.026;2023-07-22T06:32:06;94350.00;;;14.16;100.00
39223;BME280;24936;46.328;11.026;2023-07-22T06:34:32;94349.50;;;14.12;100.00
39223;BME280;24936;46.328;11.026;2023-07-22T06:36:57;94348.84;;;14.27;100.00
39223;BME280;24936;46.328;11.026;2023-07-22T06:39:22;94354.63;;;14.22;100.00
39223;BME280;24936;46.328;11.026;2023-07-22T06:41:48;94349.81;;;14.50;100.00
39223;BME280;24936;46.328;11.026;2023-07-22T06:44:13;94350.66;;;14.59;100.00
39223;BME280;24936;46.328;11.026;2023-07-22T06:46:39;94350.47;;;14.86;100.00
39223;BME280;24936;46.328;11.026;2023-07-22T06:49:04;94355.59;;;14.95;100.00
39223;BME280;24936;46.328;11.026;2023-07-22T06:51:30;94353.44;;;14.99;100.00
39223;BME280;24936;46.328;11.026;2023-07-22T06:53:55;94364.84;;;15.08;100.00
39223;BME280;24936;46.328;11.026;2023-07-22T06:56:21;94358.56;;;15.01;100.00
39223;BME280;24936;46.328;11.026;2023-07-22T06:58:46;94371.03;;;14.75;100.00
39223;BME280;24936;46.328;11.026;2023-07-22T07:01:12;94361.59;;;14.73;100.00
39223;BME280;24936;46.328;11.026;2023-07-22T07:03:37;94352.00;;;14.80;100.00
39223;BME280;24936;46.328;11.026;2023-07-22T07:06:03;94353.25;;;15.01;100.00
39223;BME280;24936;46.328;11.026;2023-07-22T07:08:28;94354.28;;;14.91;100.00
39223;BME280;24936;46.328;11.026;2023-07-22T07:10:53;94356.22;;;14.97;100.00
39223;BME280;24936;46.328;11.026;2023-07-22T07:13:19;94358.59;;;14.92;100.00
39223;BME280;24936;46.328;11.026;2023-07-22T07:15:47;94359.59;;;14.75;100.00
39223;BME280;24936;46.328;11.026;2023-07-22T07:18:14;94358.94;;;14.64;100.00
39223;BME280;24936;46.328;11.026;2023-07-22T07:20:39;94358.94;;;14.48;100.00
39223;BME280;24936;46.328;11.026;2023-07-22T07:23:05;94357.59;;;14.44;100.00
39223;BME280;24936;46.328;11.026;2023-07-22T07:25:30;94358.44;;;14.44;100.00
39223;BME280;24936;46.328;11.026;2023-07-22T07:27:55;94356.31;;;14.40;100.00
39223;BME280;24936;46.328;11.026;2023-07-22T07:30:21;94353.66;;;14.48;100.00
39223;BME280;24936;46.328;11.026;2023-07-22T07:32:46;94351.81;;;14.57;100.00
39223;BME280;24936;46.328;11.026;2023-07-22T07:35:12;94356.94;;;14.58;100.00
39223;BME280;24936;46.328;11.026;2023-07-22T07:37:37;94357.44;;;14.62;100.00
39223;BME280;24936;46.328;11.026;2023-07-22T07:40:03;94355.47;;;14.72;100.00
39223;BME280;24936;46.328;11.026;2023-07-22T07:42:29;94353.63;;;14.64;100.00
39223;BME280;24936;46.328;11.026;2023-07-22T07:44:54;94352.47;;;14.67;100.00
39223;BME280;24936;46.328;11.026;2023-07-22T07:47:20;94348.34;;;14.73;100.00
39223;BME280;24936;46.328;11.026;2023-07-22T07:49:46;94355.78;;;14.86;100.00
39223;BME280;24936;46.328;11.026;2023-07-22T07:52:11;94355.91;;;15.09;100.00
39223;BME280;24936;46.328;11.026;2023-07-22T07:54:37;94362.00;;;15.18;100.00
39223;BME280;24936;46.328;11.026;2023-07-22T07:57:02;94356.13;;;15.31;100.00
39223;BME280;24936;46.328;11.026;2023-07-22T07:59:28;94350.13;;;15.45;100.00
39223;BME280;24936;46.328;11.026;2023-07-22T08:01:53;94342.09;;;15.62;100.00
39223;BME280;24936;46.328;11.026;2023-07-22T08:04:19;94342.47;;;16.13;100.00
39223;BME280;24936;46.328;11.026;2023-07-22T08:06:44;94339.97;;;16.73;100.00
39223;BME280;24936;46.328;11.026;2023-07-22T08:09:10;94332.50;;;16.92;100.00
39223;BME280;24936;46.328;11.026;2023-07-22T08:11:37;94333.78;;;16.96;100.00
39223;BME280;24936;46.328;11.026;2023-07-22T08:14:03;94317.91;;;16.88;100.00
39223;BME280;24936;46.328;11.026;2023-07-22T08:16:30;94319.22;;;16.92;100.00
39223;BME280;24936;46.328;11.026;2023-07-22T08:18:56;94313.38;;;17.11;100.00
39223;BME280;24936;46.328;11.026;2023-07-22T08:21:21;94321.69;;;17.38;100.00
39223;BME280;24936;46.328;11.026;2023-07-22T08:23:47;94314.88;;;17.66;99.83
39223;BME280;24936;46.328;11.026;2023-07-22T08:26:13;94306.63;;;17.97;99.73
39223;BME280;24936;46.328;11.026;2023-07-22T08:28:38;94305.44;;;18.22;94.31
39223;BME280;24936;46.328;11.026;2023-07-22T08:31:04;94301.81;;;18.29;86.17
39223;BME280;24936;46.328;11.026;2023-07-22T08:33:30;94303.00;;;18.48;93.18
39223;BME280;24936;46.328;11.026;2023-07-22T08:35:55;94295.63;;;18.51;87.70
39223;BME280;24936;46.328;11.026;2023-07-22T08:38:21;94304.88;;;18.83;93.22
39223;BME280;24936;46.328;11.026;2023-07-22T08:40:49;94300.06;;;19.29;93.60
39223;BME280;24936;46.328;11.026;2023-07-22T08:43:22;94302.41;;;19.59;88.54
39223;BME280;24936;46.328;11.026;2023-07-22T08:45:52;94297.06;;;19.52;89.96
39223;BME280;24936;46.328;11.026;2023-07-22T08:48:18;94294.88;;;19.69;87.09
39223;BME280;24936;46.328;11.026;2023-07-22T08:50:49;94295.34;;;19.86;84.85
39223;BME280;24936;46.328;11.026;2023-07-22T08:53:17;94291.50;;;20.15;81.37
39223;BME280;24936;46.328;11.026;2023-07-22T08:55:45;94294.81;;;20.44;82.68
39223;BME280;24936;46.328;11.026;2023-07-22T08:58:11;94302.22;;;20.36;82.36
39223;BME280;24936;46.328;11.026;2023-07-22T09:00:38;94302.03;;;20.37;81.49
39223;BME280;24936;46.328;11.026;2023-07-22T09:03:05;94300.78;;;20.73;80.20
39223;BME280;24936;46.328;11.026;2023-07-22T09:05:34;94299.94;;;21.86;77.35
39223;BME280;24936;46.328;11.026;2023-07-22T09:08:05;94297.28;;;21.79;75.19
39223;BME280;24936;46.328;11.026;2023-07-22T09:10:32;94298.44;;;21.37;76.71
39223;BME280;24936;46.328;11.026;2023-07-22T09:12:59;94292.72;;;21.14;80.77
39223;BME280;24936;46.328;11.026;2023-07-22T09:15:26;94291.13;;;20.72;80.25
39223;BME280;24936;46.328;11.026;2023-07-22T09:17:52;94290.31;;;20.38;76.82
39223;BME280;24936;46.328;11.026;2023-07-22T09:20:19;94281.28;;;20.59;81.30
39223;BME280;24936;46.328;11.026;2023-07-22T09:22:50;94276.13;;;21.57;79.72
39223;BME280;24936;46.328;11.026;2023-07-22T09:25:26;94282.91;;;22.05;76.74
39223;BME280;24936;46.328;11.026;2023-07-22T09:27:54;94274.66;;;22.89;72.88
39223;BME280;24936;46.328;11.026;2023-07-22T09:30:35;94267.72;;;24.90;61.67
39223;BME280;24936;46.328;11.026;2023-07-22T09:33:06;94272.66;;;26.91;59.62
39223;BME280;24936;46.328;11.026;2023-07-22T09:35:49;94262.22;;;28.00;57.10
39223;BME280;24936;46.328;11.026;2023-07-22T09:38:22;94264.44;;;28.63;52.18
39223;BME280;24936;46.328;11.026;2023-07-22T09:40:48;94257.59;;;29.26;50.68
39223;BME280;24936;46.328;11.026;2023-07-22T09:43:13;94256.59;;;26.33;54.29
39223;BME280;24936;46.328;11.026;2023-07-22T09:45:39;94241.88;;;28.80;48.55
39223;BME280;24936;46.328;11.026;2023-07-22T09:48:05;94245.38;;;29.18;52.80
39223;BME280;24936;46.328;11.026;2023-07-22T09:50:31;94245.09;;;29.68;48.72
39223;BME280;24936;46.328;11.026;2023-07-22T09:52:58;94253.22;;;31.14;44.14
39223;BME280;24936;46.328;11.026;2023-07-22T09:55:26;94251.25;;;31.35;45.52
39223;BME280;24936;46.328;11.026;2023-07-22T09:58:04;94253.41;;;30.19;44.44
39223;BME280;24936;46.328;11.026;2023-07-22T10:00:35;94251.97;;;27.36;50.73
39223;BME280;24936;46.328;11.026;2023-07-22T10:03:02;94238.31;;;29.12;43.90
39223;BME280;24936;46.328;11.026;2023-07-22T10:05:34;94239.81;;;29.99;43.64
39223;BME280;24936;46.328;11.026;2023-07-22T10:08:00;94219.25;;;30.96;43.85
39223;BME280;24936;46.328;11.026;2023-07-22T10:10:38;94217.81;;;32.06;39.77
39223;BME280;24936;46.328;11.026;2023-07-22T10:13:04;94211.34;;;32.76;37.55
39223;BME280;24936;46.328;11.026;2023-07-22T10:15:32;94196.16;;;31.85;35.11
39223;BME280;24936;46.328;11.026;2023-07-22T10:17:59;94198.59;;;30.07;38.25
39223;BME280;24936;46.328;11.026;2023-07-22T10:20:25;94191.53;;;31.09;34.74
39223;BME280;24936;46.328;11.026;2023-07-22T10:22:51;94186.66;;;30.91;38.37
39223;BME280;24936;46.328;11.026;2023-07-22T10:25:21;94190.44;;;31.05;33.91
39223;BME280;24936;46.328;11.026;2023-07-22T10:27:48;94186.16;;;30.78;37.72
39223;BME280;24936;46.328;11.026;2023-07-22T10:30:16;94190.44;;;31.16;44.57
39223;BME280;24936;46.328;11.026;2023-07-22T10:32:48;94182.38;;;30.64;41.07
39223;BME280;24936;46.328;11.026;2023-07-22T10:35:22;94171.63;;;29.69;45.56
39223;BME280;24936;46.328;11.026;2023-07-22T10:37:49;94160.91;;;32.14;39.94
39223;BME280;24936;46.328;11.026;2023-07-22T10:42:51;94159.03;;;33.33;39.37
39223;BME280;24936;46.328;11.026;2023-07-22T10:45:49;94150.81;;;32.84;39.96
39223;BME280;24936;46.328;11.026;2023-07-22T10:48:14;94150.81;;;34.00;38.62
39223;BME280;24936;46.328;11.026;2023-07-22T10:50:58;94155.44;;;30.99;40.96
39223;BME280;24936;46.328;11.026;2023-07-22T11:04:20;94146.28;;;32.40;34.63
39223;BME280;24936;46.328;11.026;2023-07-22T11:14:31;94163.81;;;31.88;38.08
39223;BME280;24936;46.328;11.026;2023-07-22T11:16:58;94167.44;;;31.63;41.40
39223;BME280;24936;46.328;11.026;2023-07-22T11:19:25;94153.56;;;30.84;39.88
39223;BME280;24936;46.328;11.026;2023-07-22T11:21:52;94158.25;;;31.54;40.93
39223;BME280;24936;46.328;11.026;2023-07-22T11:24:18;94160.09;;;30.31;44.99
39223;BME280;24936;46.328;11.026;2023-07-22T11:26:45;94158.28;;;28.83;49.60
39223;BME280;24936;46.328;11.026;2023-07-22T11:29:11;94146.13;;;28.16;48.12
39223;BME280;24936;46.328;11.026;2023-07-22T11:31:39;94151.38;;;27.45;49.59
39223;BME280;24936;46.328;11.026;2023-07-22T11:34:15;94147.38;;;26.69;54.73
39223;BME280;24936;46.328;11.026;2023-07-22T11:36:41;94143.50;;;26.09;56.53
39223;BME280;24936;46.328;11.026;2023-07-22T11:39:15;94133.75;;;25.45;61.45
39223;BME280;24936;46.328;11.026;2023-07-22T11:41:42;94139.41;;;24.55;53.54
39223;BME280;24936;46.328;11.026;2023-07-22T11:44:09;94124.09;;;24.32;59.12
39223;BME280;24936;46.328;11.026;2023-07-22T11:49:29;94133.56;;;23.68;61.38
39223;BME280;24936;46.328;11.026;2023-07-22T11:51:56;94129.66;;;23.52;57.99
39223;BME280;24936;46.328;11.026;2023-07-22T11:54:22;94121.78;;;23.39;65.71
39223;BME280;24936;46.328;11.026;2023-07-22T11:56:47;94121.75;;;23.27;62.80
39223;BME280;24936;46.328;11.026;2023-07-22T11:59:13;94116.97;;;23.29;63.77
39223;BME280;24936;46.328;11.026;2023-07-22T12:01:38;94116.28;;;23.33;63.33
39223;BME280;24936;46.328;11.026;2023-07-22T12:04:10;94120.19;;;23.49;58.22
39223;BME280;24936;46.328;11.026;2023-07-22T12:06:36;94123.97;;;24.15;58.55
39223;BME280;24936;46.328;11.026;2023-07-22T12:09:02;94123.66;;;25.11;61.38
39223;BME280;24936;46.328;11.026;2023-07-22T12:11:32;94119.53;;;26.64;55.01
39223;BME280;24936;46.328;11.026;2023-07-22T12:14:11;94126.03;;;28.39;48.43
39223;BME280;24936;46.328;11.026;2023-07-22T12:16:41;94127.00;;;30.18;43.57
39223;BME280;24936;46.328;11.026;2023-07-22T12:19:08;94123.78;;;31.94;43.48
39223;BME280;24936;46.328;11.026;2023-07-22T12:21:34;94134.59;;;30.42;46.45
39223;BME280;24936;46.328;11.026;2023-07-22T12:24:01;94130.47;;;28.56;48.26
39223;BME280;24936;46.328;11.026;2023-07-22T12:26:27;94127.88;;;26.79;49.70
39223;BME280;24936;46.328;11.026;2023-07-22T12:28:53;94127.41;;;27.32;46.90
39223;BME280;24936;46.328;11.026;2023-07-22T12:31:18;94138.84;;;26.21;51.12
39223;BME280;24936;46.328;11.026;2023-07-22T12:33:43;94137.34;;;25.10;52.57
39223;BME280;24936;46.328;11.026;2023-07-22T12:36:09;94136.00;;;24.48;59.07
39223;BME280;24936;46.328;11.026;2023-07-22T12:38:34;94138.22;;;24.15;65.61
39223;BME280;24936;46.328;11.026;2023-07-22T12:41:01;94133.41;;;23.51;66.20
39223;BME280;24936;46.328;11.026;2023-07-22T12:43:27;94135.91;;;22.78;72.94
39223;BME280;24936;46.328;11.026;2023-07-22T12:45:52;94130.03;;;22.25;70.84
39223;BME280;24936;46.328;11.026;2023-07-22T12:48:17;94128.63;;;21.72;80.58
39223;BME280;24936;46.328;11.026;2023-07-22T12:50:44;94136.13;;;21.57;81.08
39223;BME280;24936;46.328;11.026;2023-07-22T12:53:09;94135.91;;;21.19;78.71
39223;BME280;24936;46.328;11.026;2023-07-22T12:55:35;94153.75;;;20.87;81.30
39223;BME280;24936;46.328;11.026;2023-07-22T12:58:00;94138.22;;;20.30;85.22
39223;BME280;24936;46.328;11.026;2023-07-22T13:00:26;94126.31;;;19.85;92.18
39223;BME280;24936;46.328;11.026;2023-07-22T13:02:51;94125.88;;;19.41;100.00